createdAt,value
2022-10-20T00:01:07.897Z,67.46
2022-10-20T00:03:34.275Z,67.83
2022-10-20T00:06:15.852Z,67.17
2022-10-20T00:08:45.052Z,67.05
2022-10-20T00:11:13.645Z,66.45
2022-10-20T00:13:41.473Z,66.84
2022-10-20T00:16:08.357Z,66.96
2022-10-20T00:18:35.645Z,67.58
2022-10-20T00:21:06.952Z,68.66
2022-10-20T00:23:33.420Z,68.08
2022-10-20T00:26:03.386Z,67.94
2022-10-20T00:28:29.831Z,68.13
2022-10-20T00:30:56.711Z,67.79
2022-10-20T00:33:23.808Z,67.42
2022-10-20T00:35:50.207Z,66.96
2022-10-20T00:40:48.097Z,68.59
2022-10-20T00:43:16.366Z,68.30
2022-10-20T00:45:45.094Z,68.11
2022-10-20T00:48:18.693Z,67.08
2022-10-20T00:50:54.074Z,68.07
2022-10-20T00:53:27.843Z,68.37
2022-10-20T00:55:56.568Z,67.08
2022-10-20T00:58:23.436Z,66.96
2022-10-20T01:00:55.410Z,68.34
2022-10-20T01:03:30.625Z,67.00
2022-10-20T01:05:57.126Z,68.11
2022-10-20T01:08:23.497Z,66.79
2022-10-20T01:11:14.863Z,68.28
2022-10-20T01:14:04.332Z,67.66
2022-10-20T01:16:39.596Z,67.29
2022-10-20T01:19:37.441Z,67.78
2022-10-20T01:22:18.698Z,67.21
2022-10-20T01:25:16.085Z,67.70
2022-10-20T01:27:44.662Z,67.13
2022-10-20T01:30:19.391Z,68.12
2022-10-20T01:33:11.452Z,67.72
2022-10-20T01:35:54.361Z,68.33
2022-10-20T01:38:36.789Z,66.64
2022-10-20T01:41:13.929Z,66.66
2022-10-20T01:43:43.474Z,68.16
2022-10-20T01:46:11.953Z,68.66
2022-10-20T01:48:40.367Z,70.30
2022-10-20T01:51:08.554Z,69.03
2022-10-20T01:53:34.916Z,68.07
2022-10-20T01:56:02.195Z,67.68
2022-10-20T01:58:28.488Z,68.02
2022-10-20T02:01:02.705Z,68.78
2022-10-20T02:03:37.475Z,68.35
2022-10-20T02:06:19.300Z,68.76
2022-10-20T02:08:48.620Z,68.22
2022-10-20T02:11:21.153Z,70.43
2022-10-20T02:13:49.809Z,70.24
2022-10-20T02:16:23.433Z,69.73
2022-10-20T02:18:50.402Z,69.23
2022-10-20T02:21:17.068Z,69.15
2022-10-20T02:23:46.061Z,69.07
2022-10-20T02:26:16.582Z,68.52
2022-10-20T02:28:48.078Z,67.96
2022-10-20T02:31:14.719Z,68.47
2022-10-20T02:33:44.385Z,69.33
2022-10-20T02:36:17.077Z,68.46
2022-10-20T02:38:43.949Z,69.27
2022-10-20T02:41:10.513Z,68.63
2022-10-20T02:43:37.170Z,68.79
2022-10-20T02:46:03.564Z,68.00
2022-10-20T02:48:29.927Z,68.49
2022-10-20T02:50:57.163Z,69.25
2022-10-20T02:53:23.504Z,68.63
2022-10-20T02:55:49.860Z,69.36
2022-10-20T02:58:16.170Z,69.21
2022-10-20T03:00:42.511Z,69.35
2022-10-20T03:03:08.827Z,68.88
2022-10-20T03:05:39.921Z,69.11
2022-10-20T03:08:06.272Z,68.65
2022-10-20T03:10:33.251Z,69.67
2022-10-20T03:12:59.556Z,69.47
2022-10-20T03:15:25.886Z,69.63
2022-10-20T03:17:52.179Z,69.58
2022-10-20T03:20:18.512Z,68.62
2022-10-20T03:22:44.833Z,69.52
2022-10-20T03:25:11.217Z,69.23
2022-10-20T03:27:37.859Z,68.60
2022-10-20T03:30:04.874Z,68.97
2022-10-20T03:32:31.230Z,68.46
2022-10-20T03:34:57.548Z,68.57
2022-10-20T03:37:24.006Z,68.63
2022-10-20T03:39:50.581Z,68.38
2022-10-20T03:42:16.952Z,68.17
2022-10-20T03:44:45.031Z,67.09
2022-10-20T03:47:14.455Z,68.14
2022-10-20T03:49:40.876Z,68.27
2022-10-20T03:52:07.229Z,68.80
2022-10-20T03:54:35.514Z,68.53
2022-10-20T03:57:05.385Z,69.26
2022-10-20T03:59:34.105Z,67.90
2022-10-20T04:02:00.505Z,68.04
2022-10-20T04:04:26.931Z,68.66
2022-10-20T04:06:53.281Z,68.60
2022-10-20T04:09:19.632Z,67.84
2022-10-20T04:14:13.510Z,67.79
2022-10-20T04:16:39.888Z,67.84
2022-10-20T04:19:06.194Z,67.42
2022-10-20T04:21:32.587Z,67.54
2022-10-20T04:23:58.914Z,68.10
2022-10-20T04:26:25.222Z,67.43
2022-10-20T04:28:51.558Z,68.21
2022-10-20T04:31:17.889Z,67.19
2022-10-20T04:33:44.214Z,67.88
2022-10-20T04:36:12.543Z,67.64
2022-10-20T04:38:38.867Z,67.51
2022-10-20T04:41:05.525Z,68.02
2022-10-20T04:43:33.011Z,67.81
2022-10-20T04:46:03.909Z,67.49
2022-10-20T04:48:33.574Z,68.36
2022-10-20T04:51:03.766Z,68.96
2022-10-20T04:53:30.150Z,68.46
2022-10-20T04:55:57.596Z,68.22
2022-10-20T04:58:24.633Z,68.62
2022-10-20T05:00:51.042Z,68.69
2022-10-20T05:03:18.973Z,68.17
2022-10-20T05:05:47.122Z,69.37
2022-10-20T05:08:13.533Z,68.60
2022-10-20T05:10:39.865Z,68.76
2022-10-20T05:13:06.233Z,68.59
2022-10-20T05:15:32.591Z,67.94
2022-10-20T05:17:58.983Z,69.50
2022-10-20T05:20:25.354Z,67.74
2022-10-20T05:22:51.693Z,68.28
2022-10-20T05:25:35.598Z,67.20
2022-10-20T05:28:03.096Z,67.90
2022-10-20T05:30:29.502Z,68.36
2022-10-20T05:32:55.858Z,67.81
2022-10-20T05:35:22.238Z,69.44
2022-10-20T05:37:48.585Z,67.49
2022-10-20T05:40:14.952Z,67.54
2022-10-20T05:42:41.304Z,68.30
2022-10-20T05:45:08.603Z,68.42
2022-10-20T05:47:35.121Z,68.40
2022-10-20T05:50:01.461Z,69.07
2022-10-20T05:52:27.832Z,68.53
2022-10-20T05:54:54.164Z,68.79
2022-10-20T05:57:20.501Z,69.04
2022-10-20T05:59:46.929Z,68.92
2022-10-20T06:02:13.471Z,69.12
2022-10-20T06:04:39.845Z,68.98
2022-10-20T06:07:06.282Z,69.54
2022-10-20T06:09:32.743Z,68.90
2022-10-20T06:11:59.145Z,67.97
2022-10-20T06:14:25.968Z,68.61
2022-10-20T06:16:53.729Z,68.38
2022-10-20T06:19:20.107Z,68.08
2022-10-20T06:21:48.847Z,68.94
2022-10-20T06:24:16.893Z,68.64
2022-10-20T06:26:43.700Z,67.92
2022-10-20T06:29:13.117Z,69.09
2022-10-20T06:31:41.886Z,68.28
2022-10-20T06:34:10.606Z,69.04
2022-10-20T06:36:39.053Z,68.87
2022-10-20T06:39:07.914Z,68.61
2022-10-20T06:41:34.787Z,69.52
2022-10-20T06:44:01.226Z,68.81
2022-10-20T06:46:30.536Z,69.30
2022-10-20T06:48:59.744Z,68.80
2022-10-20T06:51:26.597Z,68.12
2022-10-20T06:53:53.206Z,69.49
2022-10-20T06:56:22.836Z,69.60
2022-10-20T06:58:51.095Z,69.79
2022-10-20T07:01:23.417Z,70.12
2022-10-20T07:03:53.052Z,69.63
2022-10-20T07:06:22.265Z,68.62
2022-10-20T07:08:50.839Z,70.26
2022-10-20T07:11:19.437Z,70.15
2022-10-20T07:13:46.230Z,70.56
2022-10-20T07:16:14.942Z,70.95
2022-10-20T07:18:41.605Z,70.55
2022-10-20T07:21:12.220Z,71.11
2022-10-20T07:23:38.803Z,71.07
2022-10-20T07:26:20.468Z,71.82
2022-10-20T07:28:54.631Z,71.38
2022-10-20T07:31:31.544Z,71.93
2022-10-20T07:34:07.415Z,72.04
2022-10-20T07:36:45.482Z,72.34
2022-10-20T07:39:13.336Z,71.58
2022-10-20T07:41:40.184Z,72.62
2022-10-20T07:44:07.655Z,73.39
2022-10-20T07:46:34.203Z,73.59
2022-10-20T07:49:24.002Z,73.38
2022-10-20T07:51:47.564Z,73.82
2022-10-20T07:54:14.006Z,74.11
2022-10-20T07:56:42.386Z,75.11
2022-10-20T07:59:10.729Z,75.49
2022-10-20T08:01:37.949Z,74.44
2022-10-20T08:04:04.731Z,74.91
2022-10-20T08:06:31.147Z,75.24
2022-10-20T08:08:57.611Z,74.91
2022-10-20T08:11:24.438Z,75.03
2022-10-20T08:13:50.911Z,75.85
2022-10-20T08:19:11.217Z,75.71
2022-10-20T08:21:37.514Z,75.01
2022-10-20T08:24:04.117Z,75.98
2022-10-20T08:26:30.533Z,76.05
2022-10-20T08:28:56.879Z,76.34
2022-10-20T08:31:23.488Z,74.60
2022-10-20T08:33:52.849Z,75.20
2022-10-20T08:36:20.293Z,75.56
2022-10-20T08:38:46.697Z,73.84
2022-10-20T08:41:18.874Z,74.76
2022-10-20T08:43:46.550Z,74.38
2022-10-20T08:46:16.194Z,75.05
2022-10-20T08:48:44.294Z,74.96
2022-10-20T08:51:32.013Z,74.64
2022-10-20T08:54:01.647Z,73.81
2022-10-20T08:56:30.866Z,74.60
2022-10-20T08:58:57.488Z,72.42
2022-10-20T09:01:27.521Z,72.88
2022-10-20T09:04:18.394Z,73.39
2022-10-20T09:06:50.902Z,72.64
2022-10-20T09:09:21.118Z,71.81
2022-10-20T09:11:48.169Z,71.64
2022-10-20T09:14:16.543Z,70.24
2022-10-20T09:16:59.184Z,71.04
2022-10-20T09:19:28.321Z,71.15
2022-10-20T09:21:57.951Z,70.98
2022-10-20T09:24:27.397Z,70.40
2022-10-20T09:26:58.736Z,70.09
2022-10-20T09:29:37.379Z,69.62
2022-10-20T09:32:34.046Z,69.75
2022-10-20T09:34:50.232Z,69.09
2022-10-20T09:37:19.730Z,69.41
2022-10-20T09:39:56.054Z,68.16
2022-10-20T09:42:22.407Z,69.75
2022-10-20T09:44:57.950Z,69.28
2022-10-20T09:47:26.654Z,69.81
2022-10-20T09:50:00.928Z,69.27
2022-10-20T09:52:34.224Z,69.74
2022-10-20T09:55:06.708Z,69.83
2022-10-20T09:57:33.633Z,68.63
2022-10-20T10:00:04.670Z,69.62
2022-10-20T10:02:39.918Z,69.40
2022-10-20T10:05:18.943Z,69.56
2022-10-20T10:07:45.552Z,69.32
2022-10-20T10:10:17.711Z,68.45
2022-10-20T10:12:51.818Z,68.68
2022-10-20T10:15:28.720Z,69.08
2022-10-20T10:17:55.880Z,68.83
2022-10-20T10:20:22.149Z,68.49
2022-10-20T10:22:48.849Z,68.02
2022-10-20T10:25:25.173Z,68.71
2022-10-20T10:28:06.876Z,68.78
2022-10-20T10:30:35.862Z,68.87
2022-10-20T10:33:02.231Z,69.20
2022-10-20T10:35:39.899Z,68.55
2022-10-20T10:38:09.631Z,68.31
2022-10-20T10:40:56.637Z,68.08
2022-10-20T10:43:54.438Z,68.64
2022-10-20T10:46:27.235Z,68.64
2022-10-20T10:49:32.274Z,68.51
2022-10-20T10:52:21.794Z,68.24
2022-10-20T10:55:03.131Z,68.26
2022-10-20T10:58:03.252Z,68.01
2022-10-20T11:00:48.293Z,68.33
2022-10-20T11:04:07.055Z,68.60
2022-10-20T11:06:48.804Z,68.63
2022-10-20T11:09:38.020Z,67.84
2022-10-20T11:12:35.575Z,67.96
2022-10-20T11:15:42.908Z,67.48
2022-10-20T11:18:30.990Z,67.64
2022-10-20T11:21:10.839Z,67.76
2022-10-20T11:23:40.147Z,67.56
2022-10-20T11:26:19.243Z,67.50
2022-10-20T11:28:48.260Z,67.74
2022-10-20T11:31:27.938Z,67.22
2022-10-20T11:34:01.739Z,67.39
2022-10-20T11:36:34.663Z,66.95
2022-10-20T11:39:01.011Z,66.62
2022-10-20T11:41:46.843Z,66.39
2022-10-20T11:44:34.397Z,65.96
2022-10-20T11:47:06.155Z,66.21
2022-10-20T11:49:33.210Z,66.10
2022-10-20T11:52:17.519Z,65.85
2022-10-20T11:55:04.252Z,65.58
2022-10-20T11:57:39.443Z,65.49
2022-10-20T12:00:33.274Z,65.36
2022-10-20T12:03:10.837Z,65.11
2022-10-20T12:05:58.180Z,64.90
2022-10-20T12:08:47.508Z,64.17
2022-10-20T12:11:35.729Z,64.44
2022-10-20T12:14:22.032Z,65.04
2022-10-20T12:16:54.262Z,64.21
2022-10-20T12:19:30.093Z,64.01
2022-10-20T12:22:13.588Z,64.22
2022-10-20T12:24:41.221Z,64.68
2022-10-20T12:27:10.411Z,65.12
2022-10-20T12:29:36.685Z,64.52
2022-10-20T12:32:21.531Z,65.33
2022-10-20T12:34:49.714Z,65.34
2022-10-20T12:37:28.961Z,65.13
2022-10-20T12:40:23.032Z,65.11
2022-10-20T12:42:53.872Z,64.11
2022-10-20T12:45:20.172Z,64.81
2022-10-20T12:48:00.498Z,64.19
2022-10-20T12:50:41.009Z,64.00
2022-10-20T12:53:29.171Z,63.43
2022-10-20T12:56:04.324Z,63.79
2022-10-20T12:58:35.928Z,64.14
2022-10-20T13:01:12.352Z,64.34
2022-10-20T13:03:46.654Z,64.60
2022-10-20T13:06:30.048Z,64.02
2022-10-20T13:09:02.530Z,65.66
2022-10-20T13:11:38.180Z,64.95
2022-10-20T13:14:13.581Z,64.79
2022-10-20T13:16:48.758Z,64.68
2022-10-20T13:19:27.368Z,64.97
2022-10-20T13:21:53.833Z,64.57
2022-10-20T13:24:33.797Z,63.75
2022-10-20T13:27:03.180Z,64.25
2022-10-20T13:29:43.554Z,63.53
2022-10-20T13:32:12.577Z,62.98
2022-10-20T13:34:47.079Z,62.88
2022-10-20T13:37:36.445Z,63.61
2022-10-20T13:40:14.690Z,63.94
2022-10-20T13:42:59.329Z,64.37
2022-10-20T13:45:38.229Z,63.95
2022-10-20T13:48:34.529Z,64.03
2022-10-20T13:51:06.768Z,64.47
2022-10-20T13:53:39.580Z,62.97
2022-10-20T13:56:07.800Z,63.06
2022-10-20T13:58:34.868Z,63.53
2022-10-20T14:01:03.101Z,62.89
2022-10-20T14:03:31.967Z,63.01
2022-10-20T14:05:59.262Z,62.92
2022-10-20T14:08:25.928Z,63.20
2022-10-20T14:10:55.858Z,62.95
2022-10-20T14:13:25.853Z,63.86
2022-10-20T14:15:55.210Z,63.49
2022-10-20T14:18:26.324Z,64.49
2022-10-20T14:21:00.207Z,64.38
2022-10-20T14:23:31.659Z,64.84
2022-10-20T14:25:59.126Z,65.41
2022-10-20T14:28:29.352Z,65.62
2022-10-20T14:30:55.983Z,65.85
2022-10-20T14:33:22.471Z,66.40
2022-10-20T14:35:54.629Z,66.42
2022-10-20T14:38:37.956Z,66.49
2022-10-20T14:41:08.276Z,66.33
2022-10-20T14:43:48.283Z,65.98
2022-10-20T14:46:32.762Z,67.09
2022-10-20T14:49:00.714Z,66.00
2022-10-20T14:51:47.599Z,66.76
2022-10-20T14:54:20.509Z,66.52
2022-10-20T14:56:48.596Z,66.38
2022-10-20T14:59:17.411Z,66.43
2022-10-20T15:02:23.284Z,66.08
2022-10-20T15:04:53.114Z,65.83
2022-10-20T15:07:33.998Z,65.54
2022-10-20T15:10:09.019Z,65.18
2022-10-20T15:12:48.192Z,65.22
2022-10-20T15:15:22.088Z,65.80
2022-10-20T15:17:52.281Z,65.28
2022-10-20T15:20:39.306Z,65.38
2022-10-20T15:23:05.682Z,65.38
2022-10-20T15:25:43.546Z,64.89
2022-10-20T15:28:51.494Z,65.43
2022-10-20T15:31:23.618Z,65.53
2022-10-20T15:33:51.635Z,65.70
2022-10-20T15:36:29.374Z,65.65
2022-10-20T15:38:56.498Z,65.26
2022-10-20T15:41:26.848Z,65.69
2022-10-20T15:43:53.284Z,66.07
2022-10-20T15:46:20.321Z,65.68
2022-10-20T15:48:47.258Z,65.77
2022-10-20T15:51:19.006Z,65.55
2022-10-20T15:53:46.987Z,66.30
2022-10-20T15:56:13.457Z,65.67
2022-10-20T15:58:40.074Z,65.82
2022-10-20T16:01:07.744Z,66.04
2022-10-20T16:03:35.686Z,65.79
2022-10-20T16:06:02.009Z,65.79
2022-10-20T16:08:28.574Z,66.38
2022-10-20T16:10:56.132Z,66.19
2022-10-20T16:13:22.626Z,65.87
2022-10-20T16:15:49.030Z,65.46
2022-10-20T16:18:15.342Z,66.25
2022-10-20T16:20:41.656Z,66.52
2022-10-20T16:23:08.058Z,67.15
2022-10-20T16:25:34.450Z,67.63
2022-10-20T16:28:00.810Z,66.75
2022-10-20T16:30:27.271Z,67.36
2022-10-20T16:32:54.210Z,67.23
2022-10-20T16:35:20.577Z,67.26
2022-10-20T16:37:47.192Z,67.66
2022-10-20T16:40:13.652Z,68.02
2022-10-20T16:42:40.029Z,66.93
2022-10-20T16:45:06.926Z,67.77
2022-10-20T16:47:33.314Z,67.14
2022-10-20T16:49:59.660Z,68.16
2022-10-20T16:52:26.030Z,67.68
2022-10-20T16:54:52.394Z,67.49
2022-10-20T16:57:18.890Z,67.15
2022-10-20T16:59:49.812Z,68.12
2022-10-20T17:02:19.339Z,67.05
2022-10-20T17:04:49.744Z,67.83
2022-10-20T17:07:17.008Z,67.87
2022-10-20T17:09:43.512Z,67.62
2022-10-20T17:12:10.052Z,67.65
2022-10-20T17:14:36.485Z,68.82
2022-10-20T17:17:02.833Z,67.71
2022-10-20T17:19:29.395Z,67.92
2022-10-20T17:21:56.340Z,67.71
2022-10-20T17:24:24.302Z,67.62
2022-10-20T17:26:50.719Z,68.21
2022-10-20T17:29:17.082Z,68.14
2022-10-20T17:31:43.556Z,67.19
2022-10-20T17:34:10.065Z,67.13
2022-10-20T17:36:36.413Z,67.75
2022-10-20T17:39:06.282Z,67.05
2022-10-20T17:41:32.938Z,67.66
2022-10-20T17:44:04.434Z,66.67
2022-10-20T17:46:31.109Z,66.94
2022-10-20T17:48:57.437Z,67.33
2022-10-20T17:51:27.854Z,66.89
2022-10-20T17:53:58.009Z,66.95
2022-10-20T17:56:32.615Z,67.08
2022-10-20T17:59:00.503Z,68.45
2022-10-20T18:01:30.449Z,67.36
2022-10-20T18:04:06.667Z,68.28
2022-10-20T18:06:34.882Z,67.94
2022-10-20T18:09:05.589Z,68.89
2022-10-20T18:11:34.260Z,67.95
2022-10-20T18:14:01.151Z,68.00
2022-10-20T18:16:30.462Z,68.92
2022-10-20T18:21:30.911Z,68.03
2022-10-20T18:24:02.074Z,68.71
2022-10-20T18:26:29.781Z,68.81
2022-10-20T18:28:58.752Z,69.67
2022-10-20T18:31:27.387Z,69.74
2022-10-20T18:34:02.616Z,70.23
2022-10-20T18:36:33.307Z,69.94
2022-10-20T18:39:00.505Z,68.96
2022-10-20T18:41:32.980Z,70.63
2022-10-20T18:44:01.568Z,69.52
2022-10-20T18:46:30.094Z,70.57
2022-10-20T18:48:57.382Z,70.67
2022-10-20T18:51:24.030Z,69.90
2022-10-20T18:53:55.525Z,70.12
2022-10-20T18:56:24.506Z,70.96
2022-10-20T18:58:53.679Z,71.03
2022-10-20T19:01:22.474Z,70.43
2022-10-20T19:03:51.074Z,71.19
2022-10-20T19:06:21.841Z,70.91
2022-10-20T19:08:52.794Z,70.27
2022-10-20T19:11:20.311Z,69.58
2022-10-20T19:13:46.902Z,69.75
2022-10-20T19:16:17.213Z,70.73
2022-10-20T19:18:49.369Z,70.20
2022-10-20T19:21:16.797Z,70.72
2022-10-20T19:23:50.031Z,70.86
2022-10-20T19:26:22.655Z,70.24
2022-10-20T19:28:58.252Z,70.53
2022-10-20T19:31:29.720Z,70.74
2022-10-20T19:34:02.083Z,70.12
2022-10-20T19:36:29.684Z,71.50
2022-10-20T19:38:56.157Z,70.90
2022-10-20T19:41:23.390Z,71.38
2022-10-20T19:43:49.846Z,71.17
2022-10-20T19:46:18.281Z,70.98
2022-10-20T19:48:46.599Z,70.13
2022-10-20T19:51:15.138Z,69.82
2022-10-20T19:53:41.994Z,70.92
2022-10-20T19:56:09.025Z,69.78
2022-10-20T19:58:38.490Z,71.02
2022-10-20T20:01:07.243Z,69.21
2022-10-20T20:03:33.827Z,69.87
2022-10-20T20:06:01.661Z,69.67
2022-10-20T20:08:28.170Z,69.86
2022-10-20T20:10:56.413Z,69.50
2022-10-20T20:13:23.810Z,69.22
2022-10-20T20:15:50.582Z,70.08
2022-10-20T20:18:17.860Z,70.29
2022-10-20T20:20:47.065Z,69.23
2022-10-20T20:23:14.997Z,69.03
2022-10-20T20:25:44.075Z,69.87
2022-10-20T20:28:11.062Z,70.28
2022-10-20T20:30:37.835Z,69.75
2022-10-20T20:33:04.785Z,69.76
2022-10-20T20:35:31.282Z,70.49
2022-10-20T20:37:57.628Z,70.12
2022-10-20T20:40:24.065Z,70.54
2022-10-20T20:42:50.416Z,70.48
2022-10-20T20:45:16.846Z,71.42
2022-10-20T20:47:46.575Z,70.93
2022-10-20T20:50:12.903Z,70.54
2022-10-20T20:52:39.237Z,70.92
2022-10-20T20:55:05.708Z,70.59
2022-10-20T20:57:32.031Z,71.58
2022-10-20T20:59:58.393Z,70.15
2022-10-20T21:02:24.719Z,71.67
2022-10-20T21:04:51.040Z,71.18
2022-10-20T21:07:17.365Z,68.59
2022-10-20T21:09:43.718Z,71.71
2022-10-20T21:12:10.055Z,71.96
2022-10-20T21:14:36.365Z,70.64
2022-10-20T21:17:02.735Z,70.63
2022-10-20T21:19:29.734Z,70.93
2022-10-20T21:22:01.107Z,72.27
2022-10-20T21:24:27.689Z,71.42
2022-10-20T21:26:54.510Z,71.37
2022-10-20T21:29:20.879Z,71.93
2022-10-20T21:31:47.246Z,70.78
2022-10-20T21:34:14.278Z,71.52
2022-10-20T21:36:40.994Z,71.64
2022-10-20T21:39:11.439Z,72.37
2022-10-20T21:41:38.249Z,72.16
2022-10-20T21:44:07.193Z,72.63
2022-10-20T21:46:36.981Z,73.18
2022-10-20T21:49:06.295Z,72.37
2022-10-20T21:51:36.922Z,71.42
2022-10-20T21:54:08.565Z,72.25
2022-10-20T21:56:37.158Z,70.88
2022-10-20T21:59:05.185Z,71.60
2022-10-20T22:01:31.768Z,71.36
2022-10-20T22:03:58.149Z,70.54
2022-10-20T22:06:26.337Z,71.84
2022-10-20T22:08:55.597Z,71.58
2022-10-20T22:11:29.019Z,70.17
2022-10-20T22:13:56.193Z,69.79
2022-10-20T22:16:26.025Z,69.76
2022-10-20T22:18:57.119Z,71.07
2022-10-20T22:21:24.065Z,70.89
2022-10-20T22:23:53.909Z,70.66
2022-10-20T22:26:20.744Z,70.43
2022-10-20T22:28:47.165Z,70.50
2022-10-20T22:31:15.921Z,70.69
2022-10-20T22:33:44.426Z,71.00
2022-10-20T22:36:10.762Z,71.38
2022-10-20T22:38:37.123Z,71.38
2022-10-20T22:41:04.647Z,71.14
2022-10-20T22:43:31.191Z,72.44
2022-10-20T22:45:57.711Z,71.73
2022-10-20T22:48:24.373Z,72.09
2022-10-20T22:50:50.718Z,72.01
2022-10-20T22:53:17.239Z,72.60
2022-10-20T22:55:43.600Z,72.64
2022-10-20T22:58:10.114Z,73.54
2022-10-20T23:00:38.827Z,73.16
2022-10-20T23:03:05.332Z,74.24
2022-10-20T23:05:31.672Z,74.00
2022-10-20T23:07:58.670Z,75.30
2022-10-20T23:10:25.030Z,75.16
2022-10-20T23:12:51.377Z,74.80
2022-10-20T23:15:17.827Z,75.73
2022-10-20T23:17:44.428Z,76.35
2022-10-20T23:20:11.055Z,76.25
2022-10-20T23:22:37.393Z,76.63
2022-10-20T23:25:04.157Z,75.61
2022-10-20T23:27:33.592Z,76.53
2022-10-20T23:29:59.952Z,76.30
2022-10-20T23:32:26.274Z,77.02
2022-10-20T23:34:52.746Z,77.03
2022-10-20T23:37:20.917Z,77.18
2022-10-20T23:39:47.225Z,77.47
2022-10-20T23:42:13.637Z,77.57
2022-10-20T23:44:40.086Z,77.67
2022-10-20T23:47:06.405Z,77.47
2022-10-20T23:49:32.725Z,77.07
2022-10-20T23:51:59.033Z,77.66
2022-10-20T23:54:25.356Z,76.98
2022-10-20T23:56:52.139Z,77.51
2022-10-20T23:59:18.463Z,78.06
